createdAt,value
2024-05-09T00:00:45.203Z,11.43
2024-05-09T00:03:33.274Z,11.37
2024-05-09T00:06:01.168Z,11.31
2024-05-09T00:08:29.200Z,11.25
2024-05-09T00:10:57.294Z,11.19
2024-05-09T00:13:27.806Z,11.13
2024-05-09T00:15:55.494Z,11.07
2024-05-09T00:18:23.532Z,11.02
2024-05-09T00:20:51.565Z,10.96
2024-05-09T00:23:19.812Z,10.93
2024-05-09T00:25:49.940Z,10.88
2024-05-09T00:28:17.691Z,10.84
2024-05-09T00:30:45.412Z,10.79
2024-05-09T00:33:13.407Z,10.74
2024-05-09T00:35:41.684Z,10.70
2024-05-09T00:38:10.390Z,10.65
2024-05-09T00:40:43.424Z,10.57
2024-05-09T00:43:13.409Z,10.53
2024-05-09T00:45:43.151Z,10.50
2024-05-09T00:48:14.956Z,10.46
2024-05-09T00:50:45.494Z,10.38
2024-05-09T00:53:14.942Z,10.27
2024-05-09T00:55:43.406Z,10.18
2024-05-09T00:58:14.575Z,10.15
2024-05-09T01:00:42.951Z,10.13
2024-05-09T01:03:13.026Z,10.13
2024-05-09T01:05:43.424Z,10.12
2024-05-09T01:08:11.808Z,10.11
2024-05-09T01:10:42.873Z,10.11
2024-05-09T01:13:12.913Z,10.11
2024-05-09T01:15:40.825Z,10.06
2024-05-09T01:19:25.598Z,10.03
2024-05-09T01:21:53.862Z,9.91
2024-05-09T01:24:22.763Z,9.84
2024-05-09T01:26:51.706Z,9.75
2024-05-09T01:29:20.443Z,9.68
2024-05-09T01:31:49.001Z,9.62
2024-05-09T01:34:17.060Z,9.57
2024-05-09T01:37:20.247Z,9.54
2024-05-09T01:39:49.156Z,9.54
2024-05-09T01:42:17.395Z,9.53
2024-05-09T01:44:46.758Z,9.50
2024-05-09T01:47:14.526Z,9.46
2024-05-09T01:49:42.965Z,9.40
2024-05-09T01:52:11.214Z,9.38
2024-05-09T01:54:39.819Z,9.33
2024-05-09T01:57:07.494Z,9.33
2024-05-09T01:59:36.092Z,9.32
2024-05-09T02:02:04.764Z,9.30
2024-05-09T02:04:34.114Z,9.28
2024-05-09T02:07:02.830Z,9.27
2024-05-09T02:09:31.840Z,9.26
2024-05-09T02:11:59.650Z,9.19
2024-05-09T02:14:27.473Z,9.15
2024-05-09T02:16:55.809Z,9.10
2024-05-09T02:19:24.024Z,9.04
2024-05-09T02:21:52.015Z,9.03
2024-05-09T02:24:20.673Z,9.03
2024-05-09T02:26:49.602Z,9.02
2024-05-09T02:29:17.643Z,9.00
2024-05-09T02:31:46.228Z,8.97
2024-05-09T02:34:14.591Z,8.98
2024-05-09T02:36:42.723Z,8.99
2024-05-09T02:39:10.876Z,9.01
2024-05-09T02:41:38.949Z,9.02
2024-05-09T02:44:07.302Z,9.02
2024-05-09T02:46:36.145Z,9.00
2024-05-09T02:49:04.079Z,8.98
2024-05-09T02:51:32.377Z,8.88
2024-05-09T02:54:00.129Z,8.82
2024-05-09T02:56:27.890Z,8.78
2024-05-09T02:58:56.584Z,8.73
2024-05-09T03:01:24.325Z,8.69
2024-05-09T03:03:52.967Z,8.68
2024-05-09T03:06:22.572Z,8.68
2024-05-09T03:08:50.706Z,8.67
2024-05-09T03:11:23.144Z,8.64
2024-05-09T03:13:53.000Z,8.58
2024-05-09T03:16:21.816Z,8.46
2024-05-09T03:18:49.639Z,8.33
2024-05-09T03:21:17.785Z,8.23
2024-05-09T03:23:45.895Z,8.18
2024-05-09T03:26:19.348Z,8.16
2024-05-09T03:28:47.941Z,8.14
2024-05-09T03:31:18.213Z,8.08
2024-05-09T03:33:46.944Z,8.04
2024-05-09T03:36:15.241Z,8.05
2024-05-09T03:38:43.552Z,8.05
2024-05-09T03:41:12.740Z,8.05
2024-05-09T03:43:41.083Z,8.08
2024-05-09T03:46:08.724Z,8.11
2024-05-09T03:48:37.217Z,8.16
2024-05-09T03:51:07.366Z,8.22
2024-05-09T03:53:36.363Z,8.29
2024-05-09T03:56:07.931Z,8.31
2024-05-09T03:58:35.648Z,8.32
2024-05-09T04:01:05.347Z,8.34
2024-05-09T04:03:35.125Z,8.35
2024-05-09T04:06:04.027Z,8.38
2024-05-09T04:08:31.956Z,8.39
2024-05-09T04:11:00.796Z,8.39
2024-05-09T04:13:28.834Z,8.40
2024-05-09T04:15:56.835Z,8.37
2024-05-09T04:18:25.534Z,8.34
2024-05-09T04:20:54.324Z,8.31
2024-05-09T04:23:22.731Z,8.26
2024-05-09T04:25:51.011Z,8.29
2024-05-09T04:28:20.267Z,8.26
2024-05-09T04:30:48.659Z,8.17
2024-05-09T04:33:19.184Z,8.08
2024-05-09T04:35:49.301Z,8.07
2024-05-09T04:38:19.122Z,8.07
2024-05-09T04:40:48.076Z,8.07
2024-05-09T04:43:19.985Z,8.12
2024-05-09T04:45:49.931Z,8.15
2024-05-09T04:48:20.380Z,8.22
2024-05-09T04:50:48.942Z,8.30
2024-05-09T04:53:17.928Z,8.37
2024-05-09T04:55:46.264Z,8.39
2024-05-09T04:58:14.498Z,8.43
2024-05-09T05:00:43.961Z,8.50
2024-05-09T05:03:16.135Z,8.55
2024-05-09T05:05:46.888Z,8.58
2024-05-09T05:08:17.534Z,8.69
2024-05-09T05:10:48.639Z,8.86
2024-05-09T05:13:25.559Z,9.05
2024-05-09T05:15:58.044Z,9.21
2024-05-09T05:18:28.233Z,9.41
2024-05-09T05:20:57.056Z,9.59
2024-05-09T05:23:26.025Z,9.79
2024-05-09T05:25:55.893Z,9.91
2024-05-09T05:28:29.554Z,10.04
2024-05-09T05:31:00.402Z,10.14
2024-05-09T05:33:30.737Z,10.17
2024-05-09T05:35:59.007Z,10.23
2024-05-09T05:38:28.385Z,10.31
2024-05-09T05:40:56.815Z,10.36
2024-05-09T05:43:25.409Z,10.35
2024-05-09T05:45:53.979Z,10.41
2024-05-09T05:48:22.949Z,10.52
2024-05-09T05:50:51.679Z,10.68
2024-05-09T05:53:20.193Z,10.88
2024-05-09T05:55:48.315Z,11.03
2024-05-09T05:58:16.493Z,11.16
2024-05-09T06:00:46.269Z,11.34
2024-05-09T06:03:15.022Z,11.46
2024-05-09T06:05:45.562Z,11.67
2024-05-09T06:08:14.112Z,11.83
2024-05-09T06:10:42.843Z,11.93
2024-05-09T06:13:13.737Z,12.12
2024-05-09T06:15:43.634Z,12.31
2024-05-09T06:18:14.395Z,12.46
2024-05-09T06:20:43.938Z,12.63
2024-05-09T06:23:14.386Z,12.72
2024-05-09T06:25:43.749Z,12.83
2024-05-09T06:28:11.657Z,12.97
2024-05-09T06:30:42.003Z,13.13
2024-05-09T06:33:13.934Z,13.20
2024-05-09T06:35:45.864Z,13.38
2024-05-09T06:38:14.398Z,13.56
2024-05-09T06:40:44.002Z,13.64
2024-05-09T06:43:14.722Z,13.66
2024-05-09T06:45:43.950Z,13.75
2024-05-09T06:48:12.235Z,13.92
2024-05-09T06:50:41.089Z,14.13
2024-05-09T06:53:09.674Z,14.35
2024-05-09T06:55:38.417Z,14.51
2024-05-09T06:58:09.519Z,14.64
2024-05-09T07:00:40.547Z,14.72
2024-05-09T07:03:12.475Z,14.97
2024-05-09T07:05:42.201Z,15.25
2024-05-09T07:08:11.317Z,15.43
2024-05-09T07:10:39.166Z,15.54
2024-05-09T07:13:10.866Z,15.63
2024-05-09T07:15:40.232Z,15.63
2024-05-09T07:18:13.234Z,15.70
2024-05-09T07:20:42.449Z,15.54
2024-05-09T07:23:11.510Z,15.41
2024-05-09T07:25:40.127Z,15.53
2024-05-09T07:28:16.731Z,15.70
2024-05-09T07:30:45.547Z,15.93
2024-05-09T07:33:22.778Z,16.18
2024-05-09T07:35:52.561Z,16.46
2024-05-09T07:38:21.095Z,16.72
2024-05-09T07:40:49.625Z,16.97
2024-05-09T07:43:17.872Z,17.22
2024-05-09T07:45:52.679Z,17.50
2024-05-09T07:52:38.423Z,17.78
2024-05-09T07:53:47.699Z,17.93
2024-05-09T07:56:22.696Z,18.14
2024-05-09T07:58:53.781Z,18.33
2024-05-09T08:01:24.440Z,18.50
2024-05-09T08:03:53.265Z,18.71
2024-05-09T08:06:21.313Z,18.84
2024-05-09T08:08:50.579Z,18.92
2024-05-09T08:11:20.182Z,19.03
2024-05-09T08:13:48.674Z,18.97
2024-05-09T08:16:18.782Z,18.82
2024-05-09T08:18:47.923Z,18.88
2024-05-09T08:21:16.132Z,18.92
2024-05-09T08:23:44.144Z,18.95
2024-05-09T08:26:12.709Z,18.96
2024-05-09T08:28:43.651Z,18.95
2024-05-09T08:31:11.765Z,18.93
2024-05-09T08:33:47.366Z,18.99
2024-05-09T08:36:15.962Z,18.99
2024-05-09T08:38:44.146Z,19.03
2024-05-09T08:41:14.181Z,19.16
2024-05-09T08:43:43.360Z,19.18
2024-05-09T08:46:13.803Z,19.19
2024-05-09T08:48:43.838Z,19.16
2024-05-09T08:51:13.832Z,19.13
2024-05-09T08:53:41.492Z,19.24
2024-05-09T08:56:11.476Z,19.37
2024-05-09T08:58:40.515Z,19.44
2024-05-09T09:01:08.929Z,19.49
2024-05-09T09:03:38.240Z,19.71
2024-05-09T09:06:08.833Z,19.94
2024-05-09T09:08:41.177Z,20.11
2024-05-09T09:11:10.676Z,20.10
2024-05-09T09:13:40.169Z,19.96
2024-05-09T09:16:08.299Z,19.95
2024-05-09T09:18:37.056Z,20.01
2024-05-09T09:21:10.405Z,20.04
2024-05-09T09:23:41.592Z,20.09
2024-05-09T09:26:16.178Z,20.20
2024-05-09T09:28:46.821Z,20.27
2024-05-09T09:31:20.761Z,20.26
2024-05-09T09:33:49.136Z,20.46
2024-05-09T09:36:18.209Z,20.68
2024-05-09T09:38:47.130Z,20.77
2024-05-09T09:41:17.409Z,20.88
2024-05-09T09:43:45.543Z,21.12
2024-05-09T09:46:14.568Z,21.37
2024-05-09T09:48:44.256Z,21.58
2024-05-09T09:51:15.162Z,21.50
2024-05-09T09:53:43.951Z,21.40
2024-05-09T09:56:13.204Z,21.36
2024-05-09T09:58:42.283Z,21.58
2024-05-09T10:01:10.765Z,21.90
2024-05-09T10:03:39.135Z,22.14
2024-05-09T10:06:08.855Z,22.33
2024-05-09T10:08:37.519Z,22.56
2024-05-09T10:11:06.692Z,22.63
2024-05-09T10:13:35.280Z,22.66
2024-05-09T10:16:11.203Z,22.75
2024-05-09T10:18:41.064Z,22.82
2024-05-09T10:21:17.294Z,22.79
2024-05-09T10:24:08.433Z,22.69
2024-05-09T10:26:37.207Z,22.48
2024-05-09T10:29:18.681Z,22.35
2024-05-09T10:31:47.881Z,22.23
2024-05-09T10:34:20.868Z,22.15
2024-05-09T10:36:54.195Z,22.10
2024-05-09T10:39:25.421Z,22.21
2024-05-09T10:41:53.221Z,22.31
2024-05-09T10:44:21.667Z,22.50
2024-05-09T10:46:51.130Z,22.76
2024-05-09T10:49:19.221Z,23.11
2024-05-09T10:51:48.760Z,23.23
2024-05-09T10:54:17.152Z,23.34
2024-05-09T10:56:44.741Z,23.54
2024-05-09T10:59:12.890Z,23.62
2024-05-09T11:01:41.690Z,23.71
2024-05-09T11:04:10.159Z,23.94
2024-05-09T11:06:39.034Z,24.20
2024-05-09T11:09:07.729Z,24.24
2024-05-09T11:11:36.704Z,24.15
2024-05-09T11:14:12.819Z,24.21
2024-05-09T11:16:41.095Z,24.26
2024-05-09T11:19:14.312Z,24.40
2024-05-09T11:21:43.274Z,24.60
2024-05-09T11:24:11.897Z,24.90
2024-05-09T11:26:40.534Z,25.12
2024-05-09T11:29:08.525Z,25.18
2024-05-09T11:31:48.730Z,25.08
2024-05-09T11:34:16.929Z,24.90
2024-05-09T11:36:45.788Z,24.77
2024-05-09T11:39:15.147Z,24.59
2024-05-09T11:41:42.901Z,24.57
2024-05-09T11:44:11.297Z,24.46
2024-05-09T11:46:39.646Z,24.51
2024-05-09T11:49:09.324Z,24.56
2024-05-09T11:51:45.418Z,24.72
2024-05-09T11:54:15.549Z,24.70
2024-05-09T11:56:44.273Z,24.22
2024-05-09T11:59:11.984Z,23.82
2024-05-09T12:01:40.137Z,23.20
2024-05-09T12:04:08.873Z,22.86
2024-05-09T12:06:37.228Z,22.77
2024-05-09T12:09:05.230Z,22.79
2024-05-09T12:11:33.291Z,23.05
2024-05-09T12:14:01.527Z,23.20
2024-05-09T12:16:30.207Z,23.23
2024-05-09T12:18:58.884Z,23.18
2024-05-09T12:21:27.475Z,23.16
2024-05-09T12:23:56.723Z,23.10
2024-05-09T12:26:24.455Z,22.96
2024-05-09T12:28:52.718Z,22.79
2024-05-09T12:31:20.518Z,22.65
2024-05-09T12:33:49.236Z,22.60
2024-05-09T12:36:17.307Z,22.66
2024-05-09T12:38:46.084Z,22.84
2024-05-09T12:41:14.301Z,22.87
2024-05-09T12:43:45.600Z,22.78
2024-05-09T12:46:13.746Z,22.76
2024-05-09T12:48:42.037Z,22.83
2024-05-09T12:51:12.490Z,22.57
2024-05-09T12:53:41.356Z,22.48
2024-05-09T12:56:11.711Z,22.77
2024-05-09T12:58:39.710Z,23.21
2024-05-09T13:01:09.504Z,23.74
2024-05-09T13:03:38.790Z,24.11
2024-05-09T13:06:07.207Z,24.32
2024-05-09T13:08:36.103Z,24.18
2024-05-09T13:11:04.855Z,23.79
2024-05-09T13:13:33.048Z,23.37
2024-05-09T13:16:01.576Z,22.98
2024-05-09T13:18:29.943Z,22.67
2024-05-09T13:20:58.361Z,22.46
2024-05-09T13:23:27.014Z,22.41
2024-05-09T13:25:55.595Z,22.53
2024-05-09T13:28:24.141Z,22.82
2024-05-09T13:30:52.608Z,23.32
2024-05-09T13:33:20.553Z,23.88
2024-05-09T13:35:50.901Z,24.45
2024-05-09T13:38:20.511Z,24.99
2024-05-09T13:40:50.342Z,25.39
2024-05-09T13:43:21.518Z,25.89
2024-05-09T13:45:50.321Z,26.37
2024-05-09T13:48:19.579Z,26.66
2024-05-09T13:50:47.869Z,26.91
2024-05-09T13:53:16.513Z,27.04
2024-05-09T13:55:44.497Z,27.23
2024-05-09T13:58:15.867Z,27.32
2024-05-09T14:00:48.070Z,27.48
2024-05-09T14:03:20.830Z,27.67
2024-05-09T14:05:51.564Z,27.85
2024-05-09T14:08:21.630Z,27.97
2024-05-09T14:10:50.749Z,28.09
2024-05-09T14:13:19.782Z,28.27
2024-05-09T14:15:47.798Z,28.44
2024-05-09T14:18:16.282Z,28.56
2024-05-09T14:20:44.628Z,28.85
2024-05-09T14:23:12.679Z,29.11
2024-05-09T14:25:43.596Z,29.31
2024-05-09T14:28:15.387Z,29.58
2024-05-09T14:30:44.538Z,30.05
2024-05-09T14:33:12.720Z,30.51
2024-05-09T14:35:42.864Z,30.74
2024-05-09T14:38:10.848Z,30.86
2024-05-09T14:40:43.065Z,31.13
2024-05-09T14:43:14.583Z,31.53
2024-05-09T14:45:46.657Z,32.04
2024-05-09T14:48:16.410Z,32.54
2024-05-09T14:50:44.499Z,32.90
2024-05-09T14:53:13.797Z,33.20
2024-05-09T14:55:43.476Z,33.41
2024-05-09T14:58:12.913Z,33.20
2024-05-09T15:00:51.156Z,33.30
2024-05-09T15:03:26.538Z,33.64
2024-05-09T15:05:55.545Z,33.99
2024-05-09T15:08:26.844Z,34.26
2024-05-09T15:10:57.696Z,34.74
2024-05-09T15:13:25.636Z,34.85
2024-05-09T15:15:53.805Z,34.79
2024-05-09T15:18:22.600Z,34.88
2024-05-09T15:20:50.761Z,35.18
2024-05-09T15:23:19.898Z,35.58
2024-05-09T15:25:48.913Z,35.83
2024-05-09T15:28:17.765Z,36.17
2024-05-09T15:30:47.847Z,36.51
2024-05-09T15:33:15.852Z,36.72
2024-05-09T15:35:46.471Z,36.95
2024-05-09T15:38:15.516Z,37.28
2024-05-09T15:40:44.827Z,37.63
2024-05-09T15:43:13.708Z,37.63
2024-05-09T15:45:42.225Z,37.69
2024-05-09T15:48:11.384Z,38.14
2024-05-09T15:50:41.820Z,38.49
2024-05-09T15:53:13.059Z,38.55
2024-05-09T15:55:43.111Z,38.86
2024-05-09T15:58:12.912Z,39.35
2024-05-09T16:00:44.783Z,39.67
2024-05-09T16:03:14.997Z,39.75
2024-05-09T16:05:48.194Z,40.01
2024-05-09T16:08:17.231Z,39.99
2024-05-09T16:10:47.100Z,39.99
2024-05-09T16:13:16.481Z,40.07
2024-05-09T16:15:46.270Z,40.36
2024-05-09T16:18:15.029Z,40.13
2024-05-09T16:20:44.931Z,40.03
2024-05-09T16:23:14.467Z,40.12
2024-05-09T16:25:45.837Z,40.18
2024-05-09T16:28:14.896Z,40.13
2024-05-09T16:30:42.837Z,40.15
2024-05-09T16:33:12.414Z,40.35
2024-05-09T16:35:40.971Z,40.45
2024-05-09T16:38:10.075Z,40.51
2024-05-09T16:40:40.544Z,40.40
2024-05-09T16:43:11.912Z,40.58
2024-05-09T16:45:46.135Z,40.82
2024-05-09T16:48:14.823Z,40.55
2024-05-09T16:50:42.789Z,40.07
2024-05-09T16:53:10.464Z,40.20
2024-05-09T16:55:38.385Z,40.55
2024-05-09T16:58:07.983Z,41.09
2024-05-09T17:00:42.099Z,41.36
2024-05-09T17:03:14.814Z,41.48
2024-05-09T17:05:50.800Z,41.10
2024-05-09T17:08:21.109Z,40.59
2024-05-09T17:10:49.964Z,40.46
2024-05-09T17:13:19.354Z,40.50
2024-05-09T17:15:49.353Z,40.62
2024-05-09T17:18:17.366Z,40.75
2024-05-09T17:20:45.231Z,40.76
2024-05-09T17:23:14.378Z,40.49
2024-05-09T17:25:44.074Z,39.80
2024-05-09T17:28:12.467Z,37.92
2024-05-09T17:30:43.058Z,35.31
2024-05-09T17:33:12.855Z,33.20
2024-05-09T17:35:42.329Z,31.49
2024-05-09T17:38:11.307Z,30.08
2024-05-09T17:40:40.417Z,28.77
2024-05-09T17:43:10.596Z,27.65
2024-05-09T17:45:40.669Z,26.76
2024-05-09T17:48:11.048Z,26.00
2024-05-09T17:50:42.073Z,25.28
2024-05-09T17:53:11.312Z,24.56
2024-05-09T17:55:40.830Z,23.96
2024-05-09T17:58:09.439Z,23.32
2024-05-09T18:00:40.781Z,22.75
2024-05-09T18:03:12.622Z,22.32
2024-05-09T18:05:43.959Z,21.90
2024-05-09T18:08:13.366Z,21.46
2024-05-09T18:10:42.775Z,21.11
2024-05-09T18:13:12.380Z,20.82
2024-05-09T18:15:41.608Z,20.56
2024-05-09T18:18:11.960Z,20.32
2024-05-09T18:20:44.516Z,20.08
2024-05-09T18:23:16.512Z,19.80
2024-05-09T18:25:48.078Z,19.52
2024-05-09T18:28:17.071Z,19.25
2024-05-09T18:30:46.071Z,18.99
2024-05-09T18:33:14.942Z,18.75
2024-05-09T18:35:44.246Z,18.55
2024-05-09T18:38:12.211Z,18.34
2024-05-09T18:40:43.861Z,18.14
2024-05-09T18:43:15.081Z,17.97
2024-05-09T18:45:43.442Z,17.82
2024-05-09T18:48:13.394Z,17.65
2024-05-09T18:50:42.130Z,17.49
2024-05-09T18:53:12.246Z,17.32
2024-05-09T18:55:42.863Z,17.20
2024-05-09T18:58:11.142Z,17.06
2024-05-09T19:00:41.539Z,16.94
2024-05-09T19:03:13.984Z,16.82
2024-05-09T19:05:45.247Z,16.65
2024-05-09T19:08:15.168Z,16.49
2024-05-09T19:10:47.304Z,16.36
2024-05-09T19:13:16.398Z,16.26
2024-05-09T19:15:45.066Z,16.15
2024-05-09T19:18:14.031Z,16.01
2024-05-09T19:20:43.294Z,15.90
2024-05-09T19:23:12.833Z,15.78
2024-05-09T19:25:41.247Z,15.68
2024-05-09T19:28:09.979Z,15.55
2024-05-09T19:30:41.320Z,15.43
2024-05-09T19:33:13.331Z,15.30
2024-05-09T19:35:43.070Z,15.16
2024-05-09T19:38:12.924Z,15.06
2024-05-09T19:40:41.125Z,14.99
2024-05-09T19:43:10.856Z,14.90
2024-05-09T19:45:39.378Z,14.82
2024-05-09T19:48:08.118Z,14.73
2024-05-09T19:50:41.941Z,14.57
2024-05-09T19:53:14.162Z,14.44
2024-05-09T19:55:42.783Z,14.33
2024-05-09T19:58:13.245Z,14.20
2024-05-09T20:00:44.567Z,14.12
2024-05-09T20:03:14.473Z,14.07
2024-05-09T20:05:45.386Z,13.98
2024-05-09T20:08:14.961Z,13.81
2024-05-09T20:10:43.475Z,13.65
2024-05-09T20:13:12.013Z,13.51
2024-05-09T20:15:40.461Z,13.41
2024-05-09T20:18:08.936Z,13.32
2024-05-09T20:20:41.451Z,13.22
2024-05-09T20:23:13.526Z,13.11
2024-05-09T20:25:42.347Z,13.03
2024-05-09T20:28:11.257Z,12.98
2024-05-09T20:30:40.987Z,12.95
2024-05-09T20:33:10.122Z,12.85
2024-05-09T20:35:40.674Z,12.75
2024-05-09T20:38:09.341Z,12.65
2024-05-09T20:40:39.116Z,12.59
2024-05-09T20:43:09.689Z,12.57
2024-05-09T20:45:39.856Z,12.48
2024-05-09T20:48:08.974Z,12.38
2024-05-09T20:50:41.028Z,12.31
2024-05-09T20:53:13.106Z,12.27
2024-05-09T20:55:45.318Z,12.20
2024-05-09T20:58:14.355Z,12.12
2024-05-09T21:00:45.378Z,12.04
2024-05-09T21:03:16.944Z,11.96
2024-05-09T21:05:49.089Z,11.93
2024-05-09T21:08:18.774Z,11.91
2024-05-09T21:10:46.578Z,11.87
2024-05-09T21:13:14.837Z,11.86
2024-05-09T21:15:44.198Z,11.86
2024-05-09T21:18:12.730Z,11.84
2024-05-09T21:20:41.475Z,11.80
2024-05-09T21:23:09.254Z,11.75
2024-05-09T21:25:37.338Z,11.66
2024-05-09T21:28:05.446Z,11.50
2024-05-09T21:30:41.325Z,11.35
2024-05-09T21:33:13.470Z,11.21
2024-05-09T21:35:44.356Z,11.15
2024-05-09T21:38:15.024Z,11.12
2024-05-09T21:40:44.128Z,11.09
2024-05-09T21:43:12.525Z,11.03
2024-05-09T21:45:40.846Z,11.03
2024-05-09T21:48:09.435Z,11.06
2024-05-09T21:50:41.058Z,11.09
2024-05-09T21:53:11.571Z,11.11
2024-05-09T21:55:41.969Z,11.05
2024-05-09T21:58:14.392Z,10.97
2024-05-09T22:00:45.519Z,10.96
2024-05-09T22:03:14.990Z,10.88
2024-05-09T22:05:44.860Z,10.86
2024-05-09T22:08:13.505Z,10.85
2024-05-09T22:10:42.022Z,10.73
2024-05-09T22:13:10.039Z,10.61
2024-05-09T22:15:40.046Z,10.55
2024-05-09T22:18:11.762Z,10.48
2024-05-09T22:20:45.821Z,10.45
2024-05-09T22:23:15.566Z,10.37
2024-05-09T22:25:44.343Z,10.28
2024-05-09T22:28:15.730Z,10.27
2024-05-09T22:30:45.538Z,10.30
2024-05-09T22:33:14.872Z,10.33
2024-05-09T22:35:43.173Z,10.36
2024-05-09T22:38:11.860Z,10.39
2024-05-09T22:40:47.336Z,10.35
2024-05-09T22:43:23.356Z,10.36
2024-05-09T22:45:55.167Z,10.35
2024-05-09T22:48:24.750Z,10.33
2024-05-09T22:50:53.611Z,10.33
2024-05-09T22:53:24.428Z,10.33
2024-05-09T22:55:53.347Z,10.33
2024-05-09T22:58:23.013Z,10.34
2024-05-09T23:00:51.357Z,10.32
2024-05-09T23:03:22.010Z,10.30
2024-05-09T23:05:53.479Z,10.27
2024-05-09T23:08:22.637Z,10.24
2024-05-09T23:10:50.996Z,10.17
2024-05-09T23:13:19.710Z,10.11
2024-05-09T23:15:48.644Z,10.03
2024-05-09T23:18:16.398Z,10.00
2024-05-09T23:20:44.359Z,9.95
2024-05-09T23:23:12.383Z,9.92
2024-05-09T23:25:42.123Z,9.92
2024-05-09T23:28:13.135Z,9.91
2024-05-09T23:30:42.126Z,9.89
2024-05-09T23:33:12.674Z,9.78
2024-05-09T23:35:43.450Z,9.67
2024-05-09T23:38:13.160Z,9.53
2024-05-09T23:40:42.412Z,9.52
2024-05-09T23:43:12.689Z,9.48
2024-05-09T23:45:42.339Z,9.42
2024-05-09T23:48:12.074Z,9.41
2024-05-09T23:50:40.821Z,9.41
2024-05-09T23:53:10.893Z,9.38
2024-05-09T23:55:39.991Z,9.36
2024-05-09T23:58:09.633Z,9.29
